Reichenau, Austria
Current Conditions -  °F | °C
As of 12:50 AM on Thursday 23 Oct 2014 (Local Time) from LOWW Reporting Station
Broken Clouds Broken Clouds  
Wind Chill: 37°   Ceiling: 7000
Heat Index: 45°   Visibility: 6mi
Dew Point: 39°   Wind: 20mph
Humidity: 81%   Direction: 290°WNW
Pressure: 29.74"   Gusts: NA
Location:  47.7°N, 15.83°E
Report Text: LOWW 222250Z 29017KT 9999 FEW020 SCT040 BKN070 07/04 Q1007 NOSIG
Loading
Personal Weather Stations






























Interactive Weather Map
Tropical Storm Tracking
New forecast layout! Learn more

10-Day Weather Forecast

Advertisements
Track Severe Weather on mobile